Time;durP1;ratioP1;P1;durP2;ratioP2;P2;SDS_P1;SDS_P2;PMS_P1;PMS_P2;Temp;Humidity;BMP_temperature;BMP_pressure;BME280_temperature;BME280_humidity;BME280_pressure;Samples;Min_cycle;Max_cycle;Signal;HPM_P1;HPM_P2
2022/01/08 00:01:01;;;;;;;35.78;14.68;;;;;;;;;;5053960;28;20187;-69
2022/01/08 00:03:27;;;;;;;32.60;14.70;;;;;;;;;;5053547;28;20044;-68
2022/01/08 00:05:56;;;;;;;30.15;13.38;;;;;;;;;;5053643;28;20043;-67
2022/01/08 00:08:22;;;;;;;;;;;;;;;;;;5052204;28;20056;-68
2022/01/08 00:10:48;;;;;;;36.15;15.23;;;;;;;;;;5052026;28;19920;-67
2022/01/08 00:13:15;;;;;;;33.85;14.18;;;;;;;;;;5052005;28;20055;-68
2022/01/08 00:15:41;;;;;;;37.92;14.02;;;;;;;;;;5053231;28;20114;-68
2022/01/08 00:18:07;;;;;;;33.95;14.95;;;;;;;;;;5053011;28;20495;-68
2022/01/08 00:20:35;;;;;;;33.55;14.52;;;;;;;;;;5051970;28;20049;-68
2022/01/08 00:23:01;;;;;;;32.60;14.57;;;;;;;;;;5039088;28;20557;-68
2022/01/08 00:25:27;;;;;;;33.72;14.57;;;;;;;;;;5040186;28;20049;-68
2022/01/08 00:27:53;;;;;;;31.63;14.40;;;;;;;;;;5033844;28;20049;-68
2022/01/08 00:30:19;;;;;;;37.88;15.57;;;;;;;;;;5016641;28;20045;-68
2022/01/08 00:32:45;;;;;;;36.92;15.23;;;;;;;;;;5019103;28;20061;-68
2022/01/08 00:35:12;;;;;;;39.30;15.15;;;;;;;;;;5035895;28;20049;-67
2022/01/08 00:37:38;;;;;;;35.10;14.18;;;;;;;;;;5019571;28;20049;-68
2022/01/08 00:40:05;;;;;;;35.28;15.23;;;;;;;;;;5036229;28;20061;-67
2022/01/08 00:42:31;;;;;;;38.03;15.88;;;;;;;;;;5036019;28;20041;-67
2022/01/08 00:44:57;;;;;;;35.17;15.30;;;;;;;;;;5036023;28;20049;-67
2022/01/08 00:47:23;;;;;;;37.33;16.02;;;;;;;;;;5036878;28;20094;-69
2022/01/08 00:49:49;;;;;;;36.72;15.30;;;;;;;;;;5037431;28;20037;-69
2022/01/08 00:52:15;;;;;;;40.97;15.15;;;;;;;;;;5019956;28;20049;-69
2022/01/08 00:54:41;;;;;;;32.22;15.38;;;;;;;;;;5036953;28;20385;-69
2022/01/08 00:57:07;;;;;;;32.75;15.40;;;;;;;;;;5035760;28;20484;-69
2022/01/08 00:59:33;;;;;;;32.78;15.13;;;;;;;;;;5035434;28;20053;-69
2022/01/08 01:01:59;;;;;;;36.50;16.38;;;;;;;;;;5035877;28;20046;-69
2022/01/08 01:04:26;;;;;;;39.58;17.38;;;;;;;;;;5019324;28;20073;-67
2022/01/08 01:06:52;;;;;;;36.50;17.58;;;;;;;;;;5035617;28;20046;-68
2022/01/08 01:09:18;;;;;;;38.60;16.63;;;;;;;;;;5037050;28;20357;-67
2022/01/08 01:11:44;;;;;;;37.55;17.20;;;;;;;;;;5036712;28;20111;-68
2022/01/08 01:14:10;;;;;;;43.03;17.13;;;;;;;;;;5035906;28;20076;-67
2022/01/08 01:16:36;;;;;;;47.00;18.00;;;;;;;;;;5036645;28;20068;-67
2022/01/08 01:19:04;;;;;;;43.92;18.35;;;;;;;;;;5036560;28;20053;-67
2022/01/08 01:21:30;;;;;;;39.78;19.27;;;;;;;;;;5034981;28;20053;-68
2022/01/08 01:23:57;;;;;;;42.90;17.98;;;;;;;;;;5034816;28;20442;-67
2022/01/08 01:26:26;;;;;;;41.78;18.45;;;;;;;;;;5035160;28;20056;-67
2022/01/08 01:29:03;;;;;;;41.40;17.98;;;;;;;;;;5035113;28;20057;-67
2022/01/08 01:43:22;;;;;;;40.63;17.90;;;;;;;;;;4996514;28;20136;-67
2022/01/08 01:48:01;;;;;;;40.70;18.05;;;;;;;;;;4995898;28;20493;-67
2022/01/08 01:50:27;;;;;;;47.10;19.58;;;;;;;;;;4997047;28;20125;-67
2022/01/08 01:52:53;;;;;;;45.63;19.65;;;;;;;;;;4996620;28;20440;-67
2022/01/08 01:55:19;;;;;;;44.80;19.77;;;;;;;;;;4996522;28;20042;-68
2022/01/08 01:57:48;;;;;;;43.75;20.00;;;;;;;;;;4995206;28;20047;-68
2022/01/08 02:00:14;;;;;;;44.88;19.67;;;;;;;;;;4995171;28;20047;-67
2022/01/08 02:02:40;;;;;;;43.60;20.42;;;;;;;;;;4996159;28;20121;-67
2022/01/08 02:05:07;;;;;;;49.90;20.73;;;;;;;;;;4995199;28;20043;-67
2022/01/08 02:07:33;;;;;;;50.85;20.98;;;;;;;;;;4979089;28;20100;-67
2022/01/08 02:09:59;;;;;;;45.45;20.25;;;;;;;;;;4994952;28;20512;-67
2022/01/08 02:12:28;;;;;;;;;;;;;;;;;;4996092;28;20084;-67
2022/01/08 02:14:53;;;;;;;45.20;20.60;;;;;;;;;;4995199;28;20016;-67
2022/01/08 02:17:19;;;;;;;47.38;21.25;;;;;;;;;;4996530;28;20492;-68
2022/01/08 02:19:45;;;;;;;51.22;22.60;;;;;;;;;;4978940;28;20046;-67
2022/01/08 02:22:15;;;;;;;49.05;21.17;;;;;;;;;;4994379;28;20042;-68
2022/01/08 02:24:42;;;;;;;47.30;21.00;;;;;;;;;;4994553;28;20125;-67
2022/01/08 02:27:08;;;;;;;52.10;21.52;;;;;;;;;;4996172;28;20062;-67
2022/01/08 02:29:34;;;;;;;47.63;21.15;;;;;;;;;;4995012;28;20078;-69
2022/01/08 02:32:06;;;;;;;56.83;21.67;;;;;;;;;;4987070;28;20085;-67
2022/01/08 02:34:33;;;;;;;47.70;20.15;;;;;;;;;;5035931;28;20479;-67
2022/01/08 02:37:00;;;;;;;48.40;20.65;;;;;;;;;;5033664;28;20042;-67
2022/01/08 02:39:26;;;;;;;44.15;19.48;;;;;;;;;;5036772;28;20059;-67
2022/01/08 02:41:56;;;;;;;46.83;20.23;;;;;;;;;;5055065;28;20041;-67
2022/01/08 02:44:23;;;;;;;46.55;19.73;;;;;;;;;;5037028;28;20056;-67
2022/01/08 02:46:49;;;;;;;47.17;20.48;;;;;;;;;;5054744;28;20047;-67
2022/01/08 02:49:15;;;;;;;45.15;19.13;;;;;;;;;;5037244;28;20124;-68
2022/01/08 02:51:41;;;;;;;43.08;18.95;;;;;;;;;;5033187;28;20052;-68
2022/01/08 02:54:08;;;;;;;44.95;19.42;;;;;;;;;;5032817;28;20049;-68
2022/01/08 02:56:37;;;;;;;44.38;19.08;;;;;;;;;;5034818;28;20345;-68
2022/01/08 02:59:04;;;;;;;43.38;18.52;;;;;;;;;;5048338;28;20404;-68
2022/01/08 03:01:29;;;;;;;43.22;18.92;;;;;;;;;;5054679;28;20056;-68
2022/01/08 03:03:57;;;;;;;41.08;18.40;;;;;;;;;;5032072;28;20439;-67
2022/01/08 03:06:23;;;;;;;45.13;19.33;;;;;;;;;;5032960;28;20053;-68
2022/01/08 03:08:49;;;;;;;38.03;17.13;;;;;;;;;;5034168;28;20093;-68
2022/01/08 03:11:15;;;;;;;34.35;16.88;;;;;;;;;;5034831;28;20095;-67
2022/01/08 03:13:41;;;;;;;41.92;17.48;;;;;;;;;;5048253;28;20044;-67
2022/01/08 03:16:07;;;;;;;32.45;14.77;;;;;;;;;;5053812;28;20135;-68
2022/01/08 03:18:35;;;;;;;37.50;15.63;;;;;;;;;;5052407;28;20124;-67
2022/01/08 03:21:11;;;;;;;34.75;15.27;;;;;;;;;;5052872;28;20067;-67
2022/01/08 03:23:43;;;;;;;35.03;14.80;;;;;;;;;;5052753;28;20064;-68
2022/01/08 03:26:10;;;;;;;31.77;14.73;;;;;;;;;;5052361;28;20422;-67
2022/01/08 03:28:36;;;;;;;32.67;14.88;;;;;;;;;;5052279;28;20052;-67
2022/01/08 03:31:02;;;;;;;32.38;14.88;;;;;;;;;;5052650;28;20049;-68
2022/01/08 03:33:28;;;;;;;32.92;14.32;;;;;;;;;;5053966;28;20060;-67
2022/01/08 03:35:54;;;;;;;31.98;14.20;;;;;;;;;;5053821;28;20053;-67
2022/01/08 03:38:20;;;;;;;36.30;14.15;;;;;;;;;;5052336;28;20442;-68
2022/01/08 03:40:46;;;;;;;30.25;13.27;;;;;;;;;;5052291;28;20119;-67
2022/01/08 03:43:12;;;;;;;31.27;13.38;;;;;;;;;;5052019;28;20514;-68
2022/01/08 03:45:38;;;;;;;34.00;14.98;;;;;;;;;;5052183;28;20044;-67
2022/01/08 03:50:33;;;;;;;34.60;14.18;;;;;;;;;;5053503;28;20052;-66
2022/01/08 03:52:59;;;;;;;36.10;14.82;;;;;;;;;;5035957;28;20087;-67
2022/01/08 03:55:25;;;;;;;35.20;14.35;;;;;;;;;;5052087;28;20048;-67
2022/01/08 03:57:51;;;;;;;35.83;15.20;;;;;;;;;;5036262;28;20049;-67
2022/01/08 04:00:17;;;;;;;34.63;14.43;;;;;;;;;;5035847;28;20118;-67
2022/01/08 04:02:43;;;;;;;36.83;15.07;;;;;;;;;;5051997;28;20128;-67
2022/01/08 04:05:09;;;;;;;35.08;15.57;;;;;;;;;;5053548;28;20041;-67
2022/01/08 04:07:35;;;;;;;34.50;15.00;;;;;;;;;;5053460;28;20041;-67
2022/01/08 04:10:01;;;;;;;37.70;15.70;;;;;;;;;;5053338;28;20040;-67
2022/01/08 04:12:36;;;;;;;41.47;16.17;;;;;;;;;;5053141;28;20053;-68
2022/01/08 04:15:08;;;;;;;36.58;15.88;;;;;;;;;;5053695;28;20407;-67
2022/01/08 04:17:34;;;;;;;40.95;17.23;;;;;;;;;;5051766;28;20057;-67
2022/01/08 04:20:00;;;;;;;44.92;18.08;;;;;;;;;;5052943;28;20395;-67
2022/01/08 04:22:27;;;;;;;39.28;16.15;;;;;;;;;;5051756;28;20102;-67
2022/01/08 04:24:54;;;;;;;42.83;16.90;;;;;;;;;;5054282;28;20057;-68
2022/01/08 04:27:20;;;;;;;42.63;17.92;;;;;;;;;;5054151;28;20102;-67
2022/01/08 04:29:46;;;;;;;43.38;16.63;;;;;;;;;;5052945;28;20045;-67
2022/01/08 04:32:12;;;;;;;44.88;17.13;;;;;;;;;;5034650;28;20053;-67
2022/01/08 04:34:38;;;;;;;42.95;16.65;;;;;;;;;;5053029;28;20048;-67
2022/01/08 04:37:05;;;;;;;39.95;16.65;;;;;;;;;;5051555;28;20051;-67
2022/01/08 04:39:31;;;;;;;40.50;16.98;;;;;;;;;;5051811;28;20045;-67
2022/01/08 04:41:57;;;;;;;44.83;17.33;;;;;;;;;;5051565;28;20104;-67
2022/01/08 04:44:23;;;;;;;42.97;17.80;;;;;;;;;;5052810;28;20507;-67
2022/01/08 04:46:49;;;;;;;40.75;17.23;;;;;;;;;;5051870;28;20053;-67
2022/01/08 04:49:15;;;;;;;45.53;18.15;;;;;;;;;;5051674;28;20056;-67
2022/01/08 04:51:41;;;;;;;45.72;18.27;;;;;;;;;;5034873;28;20053;-68
2022/01/08 04:54:07;;;;;;;46.63;18.70;;;;;;;;;;5051257;28;20498;-67
2022/01/08 04:56:33;;;;;;;43.70;18.27;;;;;;;;;;5051488;28;20098;-67
2022/01/08 04:58:59;;;;;;;49.78;18.48;;;;;;;;;;5051198;28;20561;-67
2022/01/08 05:01:25;;;;;;;39.75;17.85;;;;;;;;;;5051542;28;20045;-66
2022/01/08 05:03:51;;;;;;;51.97;19.02;;;;;;;;;;5052490;28;20482;-66
2022/01/08 05:06:17;;;;;;;56.20;19.75;;;;;;;;;;5051594;28;20057;-67
2022/01/08 05:08:43;;;;;;;53.83;18.17;;;;;;;;;;5052557;28;20489;-67
2022/01/08 05:11:09;;;;;;;47.63;17.48;;;;;;;;;;5051303;28;20060;-67
2022/01/08 05:13:35;;;;;;;40.83;17.27;;;;;;;;;;5052360;28;20041;-67
2022/01/08 05:16:01;;;;;;;42.95;16.90;;;;;;;;;;5051571;28;20041;-67
2022/01/08 05:18:30;;;;;;;47.83;18.63;;;;;;;;;;5054658;28;20541;-67
2022/01/08 05:21:08;;;;;;;42.20;18.45;;;;;;;;;;5055964;28;20060;-67
2022/01/08 05:23:34;;;;;;;38.42;17.77;;;;;;;;;;5055238;28;20103;-67
2022/01/08 05:26:00;;;;;;;50.53;20.38;;;;;;;;;;5056098;28;20483;-67
2022/01/08 05:28:26;;;;;;;42.40;18.63;;;;;;;;;;5054526;28;20092;-67
2022/01/08 05:30:52;;;;;;;48.90;18.63;;;;;;;;;;5055930;28;20040;-67
2022/01/08 05:33:18;;;;;;;43.13;18.45;;;;;;;;;;5055946;28;20496;-67
2022/01/08 05:35:45;;;;;;;47.85;18.05;;;;;;;;;;5055591;28;20053;-67
2022/01/08 05:38:11;;;;;;;47.70;20.13;;;;;;;;;;5055090;28;20048;-67
2022/01/08 05:40:37;;;;;;;50.97;20.65;;;;;;;;;;5054521;28;20055;-67
2022/01/08 05:43:03;;;;;;;50.67;19.85;;;;;;;;;;5055939;28;20132;-67
2022/01/08 05:45:29;;;;;;;51.40;20.35;;;;;;;;;;5055539;28;20045;-67
2022/01/08 05:47:55;;;;;;;56.40;21.13;;;;;;;;;;5054200;28;20051;-67
2022/01/08 05:50:21;;;;;;;54.40;21.90;;;;;;;;;;5054150;28;20048;-67
2022/01/08 05:52:48;;;;;;;49.85;20.73;;;;;;;;;;5055448;28;20398;-67
2022/01/08 05:55:15;;;;;;;57.40;20.48;;;;;;;;;;5055492;28;20057;-67
2022/01/08 05:57:41;;;;;;;52.75;20.15;;;;;;;;;;5037377;28;20044;-67
2022/01/08 06:00:07;;;;;;;58.42;21.13;;;;;;;;;;5054341;28;20059;-67
2022/01/08 06:02:33;;;;;;;51.80;19.83;;;;;;;;;;5055149;28;20048;-67
2022/01/08 06:04:59;;;;;;;74.63;24.13;;;;;;;;;;5053846;28;20051;-68
2022/01/08 06:07:25;;;;;;;56.78;21.27;;;;;;;;;;5055397;28;20037;-66
2022/01/08 06:09:51;;;;;;;45.05;19.92;;;;;;;;;;5053977;28;20051;-66
2022/01/08 06:12:18;;;;;;;49.72;20.02;;;;;;;;;;5054012;28;20053;-66
2022/01/08 06:14:44;;;;;;;49.25;19.02;;;;;;;;;;5053876;28;20052;-66
2022/01/08 06:17:11;;;;;;;54.30;19.70;;;;;;;;;;5037249;28;20079;-66
2022/01/08 06:19:37;;;;;;;50.22;19.92;;;;;;;;;;5053559;28;20060;-67
2022/01/08 06:22:03;;;;;;;49.22;18.60;;;;;;;;;;5053474;28;20045;-66
2022/01/08 06:24:29;;;;;;;48.10;18.48;;;;;;;;;;5037249;28;20097;-66
2022/01/08 06:26:55;;;;;;;47.95;18.30;;;;;;;;;;5054880;28;20124;-66
2022/01/08 06:29:21;;;;;;;48.70;18.42;;;;;;;;;;5053699;28;20542;-67
2022/01/08 06:31:47;;;;;;;46.30;17.30;;;;;;;;;;5053105;28;20132;-68
2022/01/08 06:34:13;;;;;;;45.20;17.40;;;;;;;;;;5053694;28;20036;-67
2022/01/08 06:36:39;;;;;;;40.08;16.98;;;;;;;;;;5054737;28;20498;-67
2022/01/08 06:39:05;;;;;;;43.63;16.50;;;;;;;;;;5054587;28;20045;-67
2022/01/08 06:41:31;;;;;;;37.95;16.13;;;;;;;;;;5053287;28;20048;-66
2022/01/08 06:43:58;;;;;;;35.42;15.43;;;;;;;;;;5053453;28;20155;-66
2022/01/08 06:46:24;;;;;;;38.63;14.38;;;;;;;;;;5054450;28;20037;-66
2022/01/08 06:48:50;;;;;;;33.17;14.63;;;;;;;;;;5053127;28;20450;-66
2022/01/08 06:51:16;;;;;;;34.05;14.57;;;;;;;;;;5053438;28;20136;-66
2022/01/08 06:53:42;;;;;;;36.95;14.63;;;;;;;;;;5036591;28;20056;-66
2022/01/08 06:56:08;;;;;;;36.22;14.15;;;;;;;;;;5052849;28;20045;-66
2022/01/08 06:58:35;;;;;;;36.97;15.02;;;;;;;;;;5054541;28;20045;-67
2022/01/08 07:01:01;;;;;;;34.95;14.52;;;;;;;;;;5054127;28;20120;-67
2022/01/08 07:03:27;;;;;;;55.30;17.08;;;;;;;;;;5053851;28;20045;-67
2022/01/08 07:05:53;;;;;;;43.10;15.63;;;;;;;;;;5054218;28;20127;-67
2022/01/08 07:08:19;;;;;;;36.92;15.23;;;;;;;;;;5052908;28;20540;-67
2022/01/08 07:10:45;;;;;;;38.40;15.15;;;;;;;;;;5053950;28;20044;-67
2022/01/08 07:13:11;;;;;;;54.97;17.38;;;;;;;;;;5052621;28;20495;-67
2022/01/08 07:15:37;;;;;;;45.50;16.00;;;;;;;;;;5053782;28;20076;-67
2022/01/08 07:18:03;;;;;;;42.58;15.20;;;;;;;;;;5052447;28;20503;-66
2022/01/08 07:20:29;;;;;;;42.25;15.45;;;;;;;;;;5052450;28;20091;-67
2022/01/08 07:22:55;;;;;;;34.90;14.38;;;;;;;;;;5053648;28;20403;-67
2022/01/08 07:25:21;;;;;;;65.70;18.75;;;;;;;;;;5052587;28;20045;-68
2022/01/08 07:27:47;;;;;;;38.95;14.98;;;;;;;;;;5052458;28;20136;-66
2022/01/08 07:30:13;;;;;;;50.78;15.88;;;;;;;;;;5035701;28;20052;-67
2022/01/08 07:32:42;;;;;;;44.58;14.75;;;;;;;;;;5052382;28;20056;-67
2022/01/08 07:35:08;;;;;;;54.97;18.42;;;;;;;;;;5052593;28;20052;-68
2022/01/08 07:37:34;;;;;;;39.45;14.32;;;;;;;;;;5052311;28;20071;-67
2022/01/08 07:40:00;;;;;;;34.50;14.32;;;;;;;;;;5035561;28;20048;-67
2022/01/08 07:42:26;;;;;;;40.35;15.95;;;;;;;;;;5052359;28;20041;-67
2022/01/08 07:44:52;;;;;;;42.28;15.90;;;;;;;;;;5052385;28;20049;-67
2022/01/08 07:47:18;;;;;;;50.72;17.52;;;;;;;;;;5048813;28;20038;-67
2022/01/08 07:49:44;;;;;;;36.50;15.25;;;;;;;;;;5026034;28;20044;-68
2022/01/08 07:52:10;;;;;;;60.28;18.90;;;;;;;;;;5047394;28;20049;-67
2022/01/08 07:54:36;;;;;;;68.60;18.77;;;;;;;;;;5035368;28;20052;-67
2022/01/08 07:57:02;;;;;;;61.55;18.52;;;;;;;;;;5053332;28;20128;-67
2022/01/08 07:59:28;;;;;;;42.22;16.02;;;;;;;;;;5051914;28;20124;-67
2022/01/08 08:01:54;;;;;;;57.80;17.77;;;;;;;;;;5035277;28;20104;-67
2022/01/08 08:04:20;;;;;;;63.45;19.38;;;;;;;;;;5052606;28;20047;-67
2022/01/08 08:06:47;;;;;;;48.83;17.63;;;;;;;;;;5052508;28;20426;-68
2022/01/08 08:09:13;;;;;;;38.97;15.50;;;;;;;;;;5052700;28;20045;-67
2022/01/08 08:11:39;;;;;;;34.63;14.70;;;;;;;;;;5053807;28;20041;-67
2022/01/08 08:14:05;;;;;;;193.73;41.42;;;;;;;;;;5035925;28;20064;-67
2022/01/08 08:16:31;;;;;;;65.57;21.17;;;;;;;;;;5052064;28;20052;-67
2022/01/08 08:18:57;;;;;;;114.85;29.35;;;;;;;;;;5052264;28;20400;-68
2022/01/08 08:21:23;;;;;;;47.83;17.90;;;;;;;;;;5051901;28;20037;-67
2022/01/08 08:23:49;;;;;;;44.78;17.73;;;;;;;;;;5051908;28;20048;-67
2022/01/08 08:26:15;;;;;;;68.05;22.13;;;;;;;;;;5052103;28;20067;-66
2022/01/08 08:28:41;;;;;;;156.65;34.55;;;;;;;;;;5051922;28;20052;-67
2022/01/08 08:31:08;;;;;;;108.25;38.00;;;;;;;;;;5051809;28;20423;-67
2022/01/08 08:33:34;;;;;;;40.17;16.90;;;;;;;;;;5053328;28;20136;-67
2022/01/08 08:36:00;;;;;;;44.78;18.27;;;;;;;;;;5053163;28;20049;-67
2022/01/08 08:38:26;;;;;;;38.55;16.63;;;;;;;;;;5058010;28;20067;-67
2022/01/08 08:40:52;;;;;;;37.95;17.02;;;;;;;;;;5056201;28;20037;-66
2022/01/08 08:43:22;;;;;;;49.17;18.38;;;;;;;;;;5035549;28;20053;-66
2022/01/08 08:45:48;;;;;;;52.60;19.75;;;;;;;;;;5052169;28;20064;-66
2022/01/08 08:48:15;;;;;;;43.47;18.65;;;;;;;;;;5053569;28;20528;-68
2022/01/08 08:50:41;;;;;;;46.00;19.38;;;;;;;;;;5053032;28;20550;-68
2022/01/08 08:53:07;;;;;;;45.90;19.20;;;;;;;;;;5048414;28;20060;-68
2022/01/08 08:55:33;;;;;;;54.33;21.15;;;;;;;;;;5054841;28;20553;-68
2022/01/08 08:57:59;;;;;;;56.38;21.80;;;;;;;;;;5055795;28;20356;-68
2022/01/08 09:00:25;;;;;;;49.30;20.17;;;;;;;;;;5039157;28;20037;-68
2022/01/08 09:02:51;;;;;;;35.58;18.58;;;;;;;;;;5055562;28;20048;-67
2022/01/08 09:05:17;;;;;;;38.95;19.13;;;;;;;;;;5056955;28;20053;-67
2022/01/08 09:07:44;;;;;;;40.10;18.60;;;;;;;;;;5057221;28;20391;-67
2022/01/08 09:10:10;;;;;;;36.28;20.30;;;;;;;;;;5056652;28;20091;-65
2022/01/08 09:12:37;;;;;;;41.22;20.27;;;;;;;;;;5068789;28;20491;-65
2022/01/08 09:15:03;;;;;;;54.28;21.27;;;;;;;;;;5070679;28;20053;-66
2022/01/08 09:17:29;;;;;;;44.63;20.35;;;;;;;;;;5059741;28;20124;-66
2022/01/08 09:19:55;;;;;;;45.17;20.30;;;;;;;;;;5056777;28;20128;-66
2022/01/08 09:22:21;;;;;;;48.65;21.40;;;;;;;;;;5056444;28;20041;-66
2022/01/08 09:24:47;;;;;;;53.83;23.08;;;;;;;;;;5057156;28;20091;-66
2022/01/08 09:27:13;;;;;;;40.92;21.15;;;;;;;;;;5057109;28;20417;-66
2022/01/08 09:29:39;;;;;;;52.72;22.60;;;;;;;;;;5055809;28;20045;-66
2022/01/08 09:32:06;;;;;;;50.90;21.63;;;;;;;;;;5056939;28;20487;-66
2022/01/08 09:34:32;;;;;;;51.70;21.38;;;;;;;;;;5056852;28;20064;-66
2022/01/08 09:36:58;;;;;;;44.28;20.83;;;;;;;;;;5056664;28;20502;-66
2022/01/08 09:39:25;;;;;;;44.83;20.25;;;;;;;;;;5055244;28;20115;-67
2022/01/08 09:41:51;;;;;;;40.05;20.58;;;;;;;;;;5056548;28;20049;-67
2022/01/08 09:44:17;;;;;;;46.25;20.65;;;;;;;;;;5055136;28;20053;-66
2022/01/08 09:46:44;;;;;;;42.33;21.02;;;;;;;;;;5038875;28;20037;-67
2022/01/08 09:49:10;;;;;;;43.03;18.58;;;;;;;;;;5056466;28;20107;-66
2022/01/08 09:51:36;;;;;;;36.13;18.65;;;;;;;;;;5056317;28;20048;-67
2022/01/08 09:54:02;;;;;;;36.80;18.25;;;;;;;;;;5038081;28;20045;-67
2022/01/08 09:56:31;;;;;;;36.33;17.88;;;;;;;;;;5034889;28;20060;-68
2022/01/08 09:58:57;;;;;;;40.80;18.38;;;;;;;;;;5034887;28;20053;-68
2022/01/08 10:01:29;;;;;;;36.58;17.67;;;;;;;;;;5036148;28;20038;-68
2022/01/08 10:03:55;;;;;;;38.92;17.52;;;;;;;;;;5034896;28;20081;-68
2022/01/08 10:06:32;;;;;;;36.67;18.42;;;;;;;;;;5034905;28;20385;-68
2022/01/08 10:08:58;;;;;;;46.30;19.45;;;;;;;;;;5035226;28;20058;-67
2022/01/08 10:11:24;;;;;;;40.20;19.42;;;;;;;;;;5035333;28;20052;-67
2022/01/08 10:14:00;;;;;;;34.42;17.50;;;;;;;;;;5019530;28;20372;-67
2022/01/08 10:19:23;;;;;;;29.70;15.82;;;;;;;;;;5035112;28;20049;-67
2022/01/08 10:21:50;;;;;;;30.95;15.48;;;;;;;;;;5036066;28;20089;-67
2022/01/08 10:24:21;;;;;;;35.10;17.92;;;;;;;;;;5035728;28;20053;-68
2022/01/08 10:26:49;;;;;;;39.15;16.95;;;;;;;;;;5034974;28;20400;-68
2022/01/08 10:29:22;;;;;;;28.45;15.15;;;;;;;;;;5017512;28;20480;-68
2022/01/08 10:31:50;;;;;;;26.88;14.65;;;;;;;;;;5017972;28;20582;-68
2022/01/08 10:34:17;;;;;;;43.20;15.93;;;;;;;;;;5034101;28;20080;-68
2022/01/08 10:36:45;;;;;;;32.60;15.07;;;;;;;;;;5035423;28;20140;-68
2022/01/08 10:39:11;;;;;;;57.23;20.30;;;;;;;;;;5018158;28;20057;-68
2022/01/08 10:41:42;;;;;;;28.23;14.15;;;;;;;;;;5019013;28;20160;-68
2022/01/08 10:44:23;;;;;;;29.02;13.32;;;;;;;;;;5018304;28;20049;-69
2022/01/08 10:46:52;;;;;;;37.67;15.18;;;;;;;;;;5034125;28;20046;-69
2022/01/08 10:49:27;;;;;;;30.75;15.25;;;;;;;;;;5034391;28;20056;-69
2022/01/08 10:51:56;;;;;;;22.35;13.13;;;;;;;;;;5035134;28;20072;-67
2022/01/08 10:54:25;;;;;;;29.08;13.68;;;;;;;;;;5034801;28;20103;-69
2022/01/08 10:56:56;;;;;;;28.17;12.57;;;;;;;;;;5035023;28;20053;-68
2022/01/08 10:59:23;;;;;;;25.80;12.80;;;;;;;;;;5034989;28;20498;-68
2022/01/08 11:01:58;;;;;;;38.05;14.63;;;;;;;;;;5034931;28;20402;-68
2022/01/08 11:04:35;;;;;;;142.48;34.75;;;;;;;;;;5033580;28;20080;-68
2022/01/08 11:07:09;;;;;;;101.82;26.10;;;;;;;;;;5017208;28;20052;-69
2022/01/08 11:09:36;;;;;;;26.73;12.10;;;;;;;;;;5033427;28;20041;-67
2022/01/08 11:12:04;;;;;;;30.48;13.13;;;;;;;;;;5035281;28;20049;-68
2022/01/08 11:15:01;;;;;;;24.58;12.43;;;;;;;;;;5034691;28;20133;-68
2022/01/08 11:17:21;;;;;;;19.70;12.45;;;;;;;;;;5032799;28;20103;-68
2022/01/08 11:19:49;;;;;;;28.25;13.23;;;;;;;;;;5034514;28;20353;-68
2022/01/08 11:22:16;;;;;;;26.47;12.53;;;;;;;;;;5033262;28;20045;-68
2022/01/08 11:24:44;;;;;;;33.20;14.13;;;;;;;;;;5033163;28;20099;-67
2022/01/08 11:27:11;;;;;;;25.25;12.13;;;;;;;;;;5033536;28;20077;-67
2022/01/08 11:29:38;;;;;;;24.67;12.95;;;;;;;;;;5034133;28;20124;-67
2022/01/08 11:32:05;;;;;;;26.00;12.65;;;;;;;;;;5033720;28;20061;-67
2022/01/08 11:34:32;;;;;;;25.73;13.80;;;;;;;;;;5034616;28;20065;-68
2022/01/08 11:36:59;;;;;;;38.47;16.65;;;;;;;;;;5034482;28;20400;-69
2022/01/08 11:39:28;;;;;;;216.45;51.67;;;;;;;;;;5032660;28;20048;-68
2022/01/08 11:41:56;;;;;;;58.85;19.67;;;;;;;;;;5033999;28;20523;-68
2022/01/08 11:44:22;;;;;;;29.05;14.52;;;;;;;;;;5034465;28;20128;-68
2022/01/08 11:46:48;;;;;;;45.80;17.77;;;;;;;;;;5015857;28;20380;-69
2022/01/08 11:49:15;;;;;;;111.10;28.95;;;;;;;;;;5034793;28;20088;-69
2022/01/08 11:51:41;;;;;;;73.65;22.23;;;;;;;;;;5034493;28;20045;-69
2022/01/08 11:54:07;;;;;;;25.98;14.70;;;;;;;;;;5033103;28;20053;-68
2022/01/08 11:56:38;;;;;;;34.47;16.05;;;;;;;;;;5034062;28;20567;-67
2022/01/08 11:59:15;;;;;;;28.40;15.07;;;;;;;;;;5034327;28;20476;-67
2022/01/08 12:01:43;;;;;;;35.17;16.65;;;;;;;;;;5036795;28;20045;-67
2022/01/08 12:04:24;;;;;;;39.53;18.52;;;;;;;;;;5036445;28;20049;-68
2022/01/08 12:06:50;;;;;;;32.88;18.65;;;;;;;;;;5034029;28;20479;-67
2022/01/08 12:09:22;;;;;;;43.08;19.35;;;;;;;;;;5032427;28;20044;-68
2022/01/08 12:11:48;;;;;;;31.50;18.02;;;;;;;;;;5033605;28;20462;-67
2022/01/08 12:14:18;;;;;;;29.30;17.63;;;;;;;;;;5016129;28;20044;-66
2022/01/08 12:17:10;;;;;;;35.03;19.42;;;;;;;;;;5034138;28;20493;-66
2022/01/08 12:19:37;;;;;;;29.88;19.00;;;;;;;;;;5015535;28;20061;-66
2022/01/08 12:22:33;;;;;;;33.30;18.80;;;;;;;;;;5034369;28;20627;-66
2022/01/08 12:25:03;;;;;;;41.08;21.52;;;;;;;;;;5026316;28;20072;-66
2022/01/08 12:27:35;;;;;;;29.15;18.38;;;;;;;;;;5037959;28;20492;-67
2022/01/08 12:30:21;;;;;;;42.53;20.88;;;;;;;;;;5039249;28;20041;-66
2022/01/08 12:32:50;;;;;;;32.13;19.92;;;;;;;;;;5031595;28;20053;-66
2022/01/08 12:35:25;;;;;;;58.45;22.95;;;;;;;;;;5039948;28;20403;-67
2022/01/08 12:38:02;;;;;;;37.10;20.83;;;;;;;;;;5037161;28;20033;-67
2022/01/08 12:40:36;;;;;;;41.05;19.52;;;;;;;;;;5025726;28;20387;-67
2022/01/08 12:43:18;;;;;;;52.30;22.35;;;;;;;;;;5019823;28;20042;-68
2022/01/08 12:45:46;;;;;;;38.50;21.17;;;;;;;;;;5037796;28;20147;-69
2022/01/08 12:48:13;;;;;;;43.95;22.33;;;;;;;;;;5036391;28;20167;-68
2022/01/08 12:50:51;;;;;;;59.40;23.90;;;;;;;;;;5043773;28;20104;-69
2022/01/08 12:53:21;;;;;;;73.15;28.17;;;;;;;;;;5043881;28;20061;-68
2022/01/08 12:55:56;;;;;;;57.90;25.45;;;;;;;;;;5043527;28;20045;-68
2022/01/08 12:58:33;;;;;;;46.25;23.52;;;;;;;;;;5038361;28;20488;-69
2022/01/08 13:01:00;;;;;;;53.58;24.38;;;;;;;;;;5035968;28;20435;-69
2022/01/08 13:03:34;;;;;;;43.88;22.65;;;;;;;;;;5035618;28;20049;-68
2022/01/08 13:06:01;;;;;;;40.60;21.30;;;;;;;;;;5035517;28;20081;-69
2022/01/08 13:08:29;;;;;;;43.63;21.70;;;;;;;;;;5035717;28;20046;-69
2022/01/08 13:11:00;;;;;;;58.90;23.83;;;;;;;;;;5036472;28;20049;-67
2022/01/08 13:13:46;;;;;;;56.10;22.58;;;;;;;;;;5039010;28;20107;-67
2022/01/08 13:16:15;;;;;;;43.15;20.33;;;;;;;;;;5033726;28;20049;-67
2022/01/08 13:18:41;;;;;;;;;;;;;;;;;;5037239;28;20046;-67
2022/01/08 13:21:08;;;;;;;38.13;18.60;;;;;;;;;;5039276;28;19971;-68
2022/01/08 13:23:48;;;;;;;45.33;20.40;;;;;;;;;;5042158;28;20132;-65
2022/01/08 13:26:14;;;;;;;44.25;20.00;;;;;;;;;;5043530;28;20045;-68
2022/01/08 13:28:41;;;;;;;39.15;18.45;;;;;;;;;;5043573;28;20056;-67
2022/01/08 13:31:07;;;;;;;44.47;19.15;;;;;;;;;;5036125;28;20049;-68
2022/01/08 13:33:33;;;;;;;35.63;19.00;;;;;;;;;;5037533;28;20053;-68
2022/01/08 13:36:04;;;;;;;51.47;21.58;;;;;;;;;;5035010;28;20077;-66
2022/01/08 13:38:31;;;;;;;37.90;18.35;;;;;;;;;;5018553;28;20126;-66
2022/01/08 13:41:05;;;;;;;41.97;17.98;;;;;;;;;;5035665;28;20442;-66
2022/01/08 13:43:31;;;;;;;63.70;21.38;;;;;;;;;;5035090;28;20053;-66
2022/01/08 13:45:57;;;;;;;60.60;21.38;;;;;;;;;;5035268;28;20053;-67
2022/01/08 13:48:23;;;;;;;52.55;19.70;;;;;;;;;;5035552;28;20045;-68
2022/01/08 13:50:56;;;;;;;36.83;17.88;;;;;;;;;;5036455;28;20077;-68
2022/01/08 13:53:22;;;;;;;37.38;17.08;;;;;;;;;;5036192;28;20069;-70
2022/01/08 13:55:50;;;;;;;40.42;18.65;;;;;;;;;;5036862;28;20045;-70
2022/01/08 13:58:26;;;;;;;33.67;16.77;;;;;;;;;;5035931;28;20054;-68
2022/01/08 14:01:10;;;;;;;39.30;17.02;;;;;;;;;;5036241;28;20045;-67
2022/01/08 14:03:41;;;;;;;48.88;25.42;;;;;;;;;;5036464;28;20380;-67
2022/01/08 14:06:07;;;;;;;54.58;25.05;;;;;;;;;;5034694;28;20042;-67
2022/01/08 14:08:33;;;;;;;62.00;32.08;;;;;;;;;;5036128;28;20539;-68
2022/01/08 14:11:04;;;;;;;59.55;39.63;;;;;;;;;;5039308;28;20077;-69
2022/01/08 14:13:32;;;;;;;66.13;22.88;;;;;;;;;;5017954;28;20041;-68
2022/01/08 14:15:59;;;;;;;63.65;27.08;;;;;;;;;;5036201;28;20083;-68
2022/01/08 14:18:28;;;;;;;93.93;26.02;;;;;;;;;;5034335;28;20044;-67
2022/01/08 14:20:56;;;;;;;34.78;16.95;;;;;;;;;;5034425;28;20057;-68
2022/01/08 14:23:32;;;;;;;32.40;16.55;;;;;;;;;;5035458;28;20172;-66
2022/01/08 14:26:11;;;;;;;41.58;17.80;;;;;;;;;;5034574;28;20053;-66
2022/01/08 14:28:37;;;;;;;41.13;17.55;;;;;;;;;;5036601;28;20037;-69
2022/01/08 14:31:16;;;;;;;35.15;17.33;;;;;;;;;;5035682;28;20045;-67
2022/01/08 14:34:00;;;;;;;37.33;17.10;;;;;;;;;;5017809;28;20480;-67
2022/01/08 14:36:26;;;;;;;38.22;18.40;;;;;;;;;;5035675;28;20436;-66
2022/01/08 14:38:52;;;;;;;45.78;17.48;;;;;;;;;;5034047;28;20077;-68
2022/01/08 14:41:34;;;;;;;28.50;14.60;;;;;;;;;;5033915;28;20583;-67